South Holston Observed Data For Previous 48 Hours

Caption
Day and Hour Reservoir Elevation (behind dam)* Tailwater Elevation (below dam)* Average Hourly Discharge*
1/19/2019 2 AM EST 1,716.72 1,488.81 2,980
1/19/2019 3 AM EST 1,716.70 1,488.77 2,980
1/19/2019 4 AM EST 1,716.69 1,488.78 2,980
1/19/2019 5 AM EST 1,716.67 1,488.77 2,980
1/19/2019 6 AM EST 1,716.66 1,488.81 2,980
1/19/2019 7 AM EST 1,716.64 1,488.79 2,980
1/19/2019 8 AM EST 1,716.62 1,488.78 2,980
1/19/2019 9 AM EST 1,716.60 1,486.27 734
1/19/2019 10 AM EST 1,716.59 1,486.27 285
1/19/2019 11 AM EST 1,716.58 1,486.26 678
1/19/2019 12 PM EST 1,716.58 1,486.27 285
1/19/2019 1 PM EST 1,716.59 1,486.28 285
1/19/2019 2 PM EST 1,716.59 1,486.29 285
1/19/2019 3 PM EST 1,716.60 1,488.88 768
1/19/2019 4 PM EST 1,716.60 1,489.05 2,514
1/19/2019 5 PM EST 1,716.61 1,486.75 2,023
1/19/2019 6 PM EST 1,716.61 1,486.27 291
1/19/2019 7 PM EST 1,716.62 1,486.27 285
1/19/2019 8 PM EST 1,716.63 1,486.27 285
1/19/2019 9 PM EST 1,716.65 1,486.28 285
1/19/2019 10 PM EST 1,716.66 1,486.28 285
1/19/2019 11 PM EST 1,716.69 1,486.28 285
1/20/2019 12 AM EST 1,716.70 1,486.28 285
1/20/2019 1 AM EST 1,716.73 1,486.28 285
1/20/2019 2 AM EST 1,716.75 1,486.28 285
1/20/2019 3 AM EST 1,716.77 1,486.28 285
1/20/2019 4 AM EST 1,716.80 1,486.29 285
1/20/2019 5 AM EST 1,716.82 1,486.28 285
1/20/2019 6 AM EST 1,716.85 1,486.28 285
1/20/2019 7 AM EST 1,716.88 1,486.29 285
1/20/2019 8 AM EST 1,716.91 1,486.29 285
1/20/2019 9 AM EST 1,716.93 1,486.29 285
1/20/2019 10 AM EST 1,716.96 1,486.29 285
1/20/2019 11 AM EST 1,717.00 1,486.29 285
1/20/2019 12 PM EST 1,717.03 1,486.28 285
1/20/2019 1 PM EST 1,717.07 1,486.29 285
1/20/2019 2 PM EST 1,717.11 1,486.29 285
1/20/2019 3 PM EST 1,717.15 1,486.28 285
1/20/2019 4 PM EST 1,717.19 1,486.29 285
1/20/2019 5 PM EST 1,717.23 1,486.29 285
1/20/2019 6 PM EST 1,717.28 1,486.28 285
1/20/2019 7 PM EST 1,717.32 1,486.28 285
1/20/2019 8 PM EST 1,717.37 1,486.28 285
1/20/2019 9 PM EST 1,717.42 1,486.28 285
1/20/2019 10 PM EST 1,717.47 1,486.28 285
1/20/2019 11 PM EST 1,717.54 1,486.28 285
1/21/2019 12 AM EST 1,717.61 1,486.28 285
1/21/2019 1 AM EST 1,717.69 1,486.29 285

Elevations are in feet above sea level. Discharges are in cubic feet per second and are reported at the end of the hour.